sensor_id;sensor_type;location;lat;lon;timestamp;P1;durP1;ratioP1;P2;durP2;ratioP2
78985;SDS011;68384;55.750;48.746;2023-06-19T00:00:18;4.60;;;1.92;;
78985;SDS011;68384;55.750;48.746;2023-06-19T00:01:22;4.97;;;2.40;;
78985;SDS011;68384;55.750;48.746;2023-06-19T00:02:25;3.38;;;1.88;;
78985;SDS011;68384;55.750;48.746;2023-06-19T00:03:29;3.28;;;1.70;;
78985;SDS011;68384;55.750;48.746;2023-06-19T00:04:32;4.13;;;1.92;;
78985;SDS011;68384;55.750;48.746;2023-06-19T00:06:38;3.58;;;1.80;;
78985;SDS011;68384;55.750;48.746;2023-06-19T00:07:42;5.95;;;1.92;;
78985;SDS011;68384;55.750;48.746;2023-06-19T00:08:45;3.47;;;2.22;;
78985;SDS011;68384;55.750;48.746;2023-06-19T00:09:49;4.10;;;2.20;;
78985;SDS011;68384;55.750;48.746;2023-06-19T00:10:51;3.40;;;2.45;;
78985;SDS011;68384;55.750;48.746;2023-06-19T00:11:57;3.40;;;2.08;;
78985;SDS011;68384;55.750;48.746;2023-06-19T00:13:00;4.93;;;1.90;;
78985;SDS011;68384;55.750;48.746;2023-06-19T00:14:04;3.13;;;2.00;;
78985;SDS011;68384;55.750;48.746;2023-06-19T00:15:08;2.97;;;1.80;;
78985;SDS011;68384;55.750;48.746;2023-06-19T00:16:12;4.10;;;1.73;;
78985;SDS011;68384;55.750;48.746;2023-06-19T00:17:16;6.75;;;2.15;;
78985;SDS011;68384;55.750;48.746;2023-06-19T00:18:19;3.17;;;2.35;;
78985;SDS011;68384;55.750;48.746;2023-06-19T00:19:24;3.38;;;2.00;;
78985;SDS011;68384;55.750;48.746;2023-06-19T00:20:27;2.85;;;2.20;;
78985;SDS011;68384;55.750;48.746;2023-06-19T00:21:31;5.03;;;2.05;;
78985;SDS011;68384;55.750;48.746;2023-06-19T00:22:34;3.47;;;1.83;;
78985;SDS011;68384;55.750;48.746;2023-06-19T00:23:38;3.40;;;1.80;;
78985;SDS011;68384;55.750;48.746;2023-06-19T00:24:40;3.95;;;2.10;;
78985;SDS011;68384;55.750;48.746;2023-06-19T00:25:44;2.78;;;1.80;;
78985;SDS011;68384;55.750;48.746;2023-06-19T00:26:47;3.50;;;1.90;;
78985;SDS011;68384;55.750;48.746;2023-06-19T00:28:55;2.92;;;2.05;;
78985;SDS011;68384;55.750;48.746;2023-06-19T00:29:59;2.67;;;1.70;;
78985;SDS011;68384;55.750;48.746;2023-06-19T00:31:06;4.57;;;1.92;;
78985;SDS011;68384;55.750;48.746;2023-06-19T00:32:10;4.68;;;2.40;;
78985;SDS011;68384;55.750;48.746;2023-06-19T00:33:16;2.92;;;1.90;;
78985;SDS011;68384;55.750;48.746;2023-06-19T00:34:20;3.13;;;1.90;;
78985;SDS011;68384;55.750;48.746;2023-06-19T00:35:24;10.48;;;2.40;;
78985;SDS011;68384;55.750;48.746;2023-06-19T00:36:30;3.60;;;2.03;;
78985;SDS011;68384;55.750;48.746;2023-06-19T00:37:32;3.85;;;1.80;;
78985;SDS011;68384;55.750;48.746;2023-06-19T00:38:37;3.28;;;2.03;;
78985;SDS011;68384;55.750;48.746;2023-06-19T00:39:40;3.08;;;1.90;;
78985;SDS011;68384;55.750;48.746;2023-06-19T00:40:45;3.15;;;1.92;;
78985;SDS011;68384;55.750;48.746;2023-06-19T00:41:49;4.82;;;2.05;;
78985;SDS011;68384;55.750;48.746;2023-06-19T00:42:56;2.22;;;1.70;;
78985;SDS011;68384;55.750;48.746;2023-06-19T00:43:59;2.85;;;1.77;;
78985;SDS011;68384;55.750;48.746;2023-06-19T00:45:03;3.22;;;1.80;;
78985;SDS011;68384;55.750;48.746;2023-06-19T00:46:07;2.70;;;1.80;;
78985;SDS011;68384;55.750;48.746;2023-06-19T00:47:11;3.60;;;1.80;;
78985;SDS011;68384;55.750;48.746;2023-06-19T00:48:14;2.63;;;1.60;;
78985;SDS011;68384;55.750;48.746;2023-06-19T00:49:19;3.70;;;1.95;;
78985;SDS011;68384;55.750;48.746;2023-06-19T00:50:22;2.70;;;1.70;;
78985;SDS011;68384;55.750;48.746;2023-06-19T00:51:27;2.67;;;1.85;;
78985;SDS011;68384;55.750;48.746;2023-06-19T00:52:30;3.25;;;1.77;;
78985;SDS011;68384;55.750;48.746;2023-06-19T00:53:35;3.17;;;2.00;;
78985;SDS011;68384;55.750;48.746;2023-06-19T00:54:38;2.28;;;1.77;;
78985;SDS011;68384;55.750;48.746;2023-06-19T00:55:42;2.75;;;1.83;;
78985;SDS011;68384;55.750;48.746;2023-06-19T00:56:46;2.70;;;1.92;;
78985;SDS011;68384;55.750;48.746;2023-06-19T00:57:53;2.65;;;1.92;;
78985;SDS011;68384;55.750;48.746;2023-06-19T00:58:58;4.50;;;2.17;;
78985;SDS011;68384;55.750;48.746;2023-06-19T01:00:02;3.92;;;2.13;;
78985;SDS011;68384;55.750;48.746;2023-06-19T01:01:06;3.42;;;2.15;;
78985;SDS011;68384;55.750;48.746;2023-06-19T01:02:11;2.85;;;1.73;;
78985;SDS011;68384;55.750;48.746;2023-06-19T01:03:14;3.60;;;1.98;;
78985;SDS011;68384;55.750;48.746;2023-06-19T01:04:19;3.28;;;2.00;;
78985;SDS011;68384;55.750;48.746;2023-06-19T01:05:22;3.17;;;1.90;;
78985;SDS011;68384;55.750;48.746;2023-06-19T01:06:27;3.72;;;2.00;;
78985;SDS011;68384;55.750;48.746;2023-06-19T01:07:50;2.90;;;2.10;;
78985;SDS011;68384;55.750;48.746;2023-06-19T01:09:03;3.83;;;2.13;;
78985;SDS011;68384;55.750;48.746;2023-06-19T01:10:10;3.30;;;1.80;;
78985;SDS011;68384;55.750;48.746;2023-06-19T01:11:20;4.45;;;1.90;;
78985;SDS011;68384;55.750;48.746;2023-06-19T01:12:30;3.72;;;1.90;;
78985;SDS011;68384;55.750;48.746;2023-06-19T01:13:41;3.50;;;1.92;;
78985;SDS011;68384;55.750;48.746;2023-06-19T01:14:50;3.10;;;1.80;;
78985;SDS011;68384;55.750;48.746;2023-06-19T01:17:02;4.13;;;2.17;;
78985;SDS011;68384;55.750;48.746;2023-06-19T01:18:07;4.35;;;2.10;;
78985;SDS011;68384;55.750;48.746;2023-06-19T01:19:15;3.80;;;2.10;;
78985;SDS011;68384;55.750;48.746;2023-06-19T01:20:22;2.42;;;1.75;;
78985;SDS011;68384;55.750;48.746;2023-06-19T01:21:25;2.70;;;1.88;;
78985;SDS011;68384;55.750;48.746;2023-06-19T01:22:31;3.47;;;1.88;;
78985;SDS011;68384;55.750;48.746;2023-06-19T01:23:34;5.53;;;1.95;;
78985;SDS011;68384;55.750;48.746;2023-06-19T01:24:38;3.13;;;2.30;;
78985;SDS011;68384;55.750;48.746;2023-06-19T01:25:42;4.15;;;1.83;;
78985;SDS011;68384;55.750;48.746;2023-06-19T01:26:46;6.05;;;2.40;;
78985;SDS011;68384;55.750;48.746;2023-06-19T01:27:49;4.30;;;2.80;;
78985;SDS011;68384;55.750;48.746;2023-06-19T01:28:54;5.30;;;2.20;;
78985;SDS011;68384;55.750;48.746;2023-06-19T01:29:58;4.97;;;2.20;;
78985;SDS011;68384;55.750;48.746;2023-06-19T01:31:09;6.10;;;1.92;;
78985;SDS011;68384;55.750;48.746;2023-06-19T01:32:17;3.00;;;2.00;;
78985;SDS011;68384;55.750;48.746;2023-06-19T01:33:25;3.00;;;2.28;;
78985;SDS011;68384;55.750;48.746;2023-06-19T01:34:30;3.08;;;2.03;;
78985;SDS011;68384;55.750;48.746;2023-06-19T01:35:40;3.95;;;2.28;;
78985;SDS011;68384;55.750;48.746;2023-06-19T01:36:44;5.57;;;2.50;;
78985;SDS011;68384;55.750;48.746;2023-06-19T01:37:51;3.42;;;2.20;;
78985;SDS011;68384;55.750;48.746;2023-06-19T01:38:55;3.17;;;2.38;;
78985;SDS011;68384;55.750;48.746;2023-06-19T01:40:02;3.75;;;2.10;;
78985;SDS011;68384;55.750;48.746;2023-06-19T01:41:07;3.65;;;2.20;;
78985;SDS011;68384;55.750;48.746;2023-06-19T01:42:16;4.30;;;3.08;;
78985;SDS011;68384;55.750;48.746;2023-06-19T01:43:19;3.72;;;2.20;;
78985;SDS011;68384;55.750;48.746;2023-06-19T01:44:26;3.67;;;2.15;;
78985;SDS011;68384;55.750;48.746;2023-06-19T01:45:29;4.13;;;2.50;;
78985;SDS011;68384;55.750;48.746;2023-06-19T01:46:35;6.43;;;2.58;;
78985;SDS011;68384;55.750;48.746;2023-06-19T01:47:38;7.47;;;2.35;;
78985;SDS011;68384;55.750;48.746;2023-06-19T01:48:42;4.18;;;2.58;;
78985;SDS011;68384;55.750;48.746;2023-06-19T01:49:45;4.10;;;2.20;;
78985;SDS011;68384;55.750;48.746;2023-06-19T01:50:49;6.53;;;2.30;;
78985;SDS011;68384;55.750;48.746;2023-06-19T01:51:53;6.65;;;2.60;;
78985;SDS011;68384;55.750;48.746;2023-06-19T01:52:59;2.95;;;2.38;;
78985;SDS011;68384;55.750;48.746;2023-06-19T01:54:02;5.75;;;2.67;;
78985;SDS011;68384;55.750;48.746;2023-06-19T01:55:07;5.15;;;2.47;;
78985;SDS011;68384;55.750;48.746;2023-06-19T01:56:11;3.85;;;2.80;;
78985;SDS011;68384;55.750;48.746;2023-06-19T01:57:15;8.05;;;4.70;;
78985;SDS011;68384;55.750;48.746;2023-06-19T01:58:18;3.38;;;2.10;;
78985;SDS011;68384;55.750;48.746;2023-06-19T01:59:22;3.25;;;2.30;;
78985;SDS011;68384;55.750;48.746;2023-06-19T02:00:25;5.13;;;2.67;;
78985;SDS011;68384;55.750;48.746;2023-06-19T02:01:32;7.10;;;2.63;;
78985;SDS011;68384;55.750;48.746;2023-06-19T02:02:35;2.92;;;2.30;;
78985;SDS011;68384;55.750;48.746;2023-06-19T02:03:39;3.72;;;2.40;;
78985;SDS011;68384;55.750;48.746;2023-06-19T02:04:43;3.58;;;2.10;;
78985;SDS011;68384;55.750;48.746;2023-06-19T02:05:47;4.32;;;2.53;;
78985;SDS011;68384;55.750;48.746;2023-06-19T02:06:50;2.88;;;2.10;;
78985;SDS011;68384;55.750;48.746;2023-06-19T02:07:56;3.90;;;2.28;;
78985;SDS011;68384;55.750;48.746;2023-06-19T02:09:00;5.20;;;2.95;;
78985;SDS011;68384;55.750;48.746;2023-06-19T02:10:04;4.05;;;2.50;;
78985;SDS011;68384;55.750;48.746;2023-06-19T02:11:08;4.55;;;2.42;;
78985;SDS011;68384;55.750;48.746;2023-06-19T02:12:12;5.35;;;2.80;;
78985;SDS011;68384;55.750;48.746;2023-06-19T02:13:15;5.55;;;2.95;;
78985;SDS011;68384;55.750;48.746;2023-06-19T02:14:19;4.93;;;2.80;;
78985;SDS011;68384;55.750;48.746;2023-06-19T02:15:22;4.32;;;2.30;;
78985;SDS011;68384;55.750;48.746;2023-06-19T02:16:26;4.35;;;2.30;;
78985;SDS011;68384;55.750;48.746;2023-06-19T02:17:29;3.83;;;2.58;;
78985;SDS011;68384;55.750;48.746;2023-06-19T02:18:33;4.95;;;2.65;;
78985;SDS011;68384;55.750;48.746;2023-06-19T02:19:36;5.28;;;2.88;;
78985;SDS011;68384;55.750;48.746;2023-06-19T02:20:40;6.32;;;2.67;;
78985;SDS011;68384;55.750;48.746;2023-06-19T02:21:43;5.47;;;2.92;;
78985;SDS011;68384;55.750;48.746;2023-06-19T02:22:47;4.65;;;2.50;;
78985;SDS011;68384;55.750;48.746;2023-06-19T02:23:50;7.32;;;2.88;;
78985;SDS011;68384;55.750;48.746;2023-06-19T02:24:55;3.83;;;2.78;;
78985;SDS011;68384;55.750;48.746;2023-06-19T02:25:58;6.25;;;2.92;;
78985;SDS011;68384;55.750;48.746;2023-06-19T02:27:02;5.10;;;3.00;;
78985;SDS011;68384;55.750;48.746;2023-06-19T02:28:05;5.00;;;2.63;;
78985;SDS011;68384;55.750;48.746;2023-06-19T02:29:09;4.47;;;2.60;;
78985;SDS011;68384;55.750;48.746;2023-06-19T02:30:12;6.78;;;2.78;;
78985;SDS011;68384;55.750;48.746;2023-06-19T02:31:17;4.22;;;2.60;;
78985;SDS011;68384;55.750;48.746;2023-06-19T02:32:20;6.78;;;3.10;;
78985;SDS011;68384;55.750;48.746;2023-06-19T02:33:24;8.73;;;2.85;;
78985;SDS011;68384;55.750;48.746;2023-06-19T02:34:27;4.68;;;2.42;;
78985;SDS011;68384;55.750;48.746;2023-06-19T02:35:31;7.38;;;2.70;;
78985;SDS011;68384;55.750;48.746;2023-06-19T02:36:33;3.10;;;2.15;;
78985;SDS011;68384;55.750;48.746;2023-06-19T02:37:38;6.07;;;2.63;;
78985;SDS011;68384;55.750;48.746;2023-06-19T02:38:41;3.90;;;2.67;;
78985;SDS011;68384;55.750;48.746;2023-06-19T02:39:45;4.75;;;2.80;;
78985;SDS011;68384;55.750;48.746;2023-06-19T02:40:50;5.00;;;2.78;;
78985;SDS011;68384;55.750;48.746;2023-06-19T02:41:54;4.95;;;2.40;;
78985;SDS011;68384;55.750;48.746;2023-06-19T02:42:56;6.47;;;2.70;;
78985;SDS011;68384;55.750;48.746;2023-06-19T02:44:00;4.80;;;2.67;;
78985;SDS011;68384;55.750;48.746;2023-06-19T02:45:03;5.93;;;2.80;;
78985;SDS011;68384;55.750;48.746;2023-06-19T02:46:16;6.82;;;2.83;;
78985;SDS011;68384;55.750;48.746;2023-06-19T02:47:20;6.50;;;2.90;;
78985;SDS011;68384;55.750;48.746;2023-06-19T02:48:22;4.68;;;2.95;;
78985;SDS011;68384;55.750;48.746;2023-06-19T02:49:27;4.00;;;2.50;;
78985;SDS011;68384;55.750;48.746;2023-06-19T02:50:32;5.90;;;2.65;;
78985;SDS011;68384;55.750;48.746;2023-06-19T02:51:36;5.65;;;2.70;;
78985;SDS011;68384;55.750;48.746;2023-06-19T02:52:42;5.05;;;2.67;;
78985;SDS011;68384;55.750;48.746;2023-06-19T02:53:46;4.30;;;2.47;;
78985;SDS011;68384;55.750;48.746;2023-06-19T02:54:49;4.35;;;2.42;;
78985;SDS011;68384;55.750;48.746;2023-06-19T02:55:55;5.15;;;2.40;;
78985;SDS011;68384;55.750;48.746;2023-06-19T02:56:57;4.55;;;2.40;;
78985;SDS011;68384;55.750;48.746;2023-06-19T02:58:01;4.00;;;2.35;;
78985;SDS011;68384;55.750;48.746;2023-06-19T02:59:05;4.47;;;2.60;;
78985;SDS011;68384;55.750;48.746;2023-06-19T03:00:09;6.32;;;2.70;;
78985;SDS011;68384;55.750;48.746;2023-06-19T03:01:14;3.72;;;2.53;;
78985;SDS011;68384;55.750;48.746;2023-06-19T03:02:19;3.88;;;2.38;;
78985;SDS011;68384;55.750;48.746;2023-06-19T03:03:22;4.07;;;2.42;;
78985;SDS011;68384;55.750;48.746;2023-06-19T03:04:26;3.90;;;2.35;;
78985;SDS011;68384;55.750;48.746;2023-06-19T03:05:30;5.32;;;2.40;;
78985;SDS011;68384;55.750;48.746;2023-06-19T03:06:35;4.53;;;2.28;;
78985;SDS011;68384;55.750;48.746;2023-06-19T03:07:42;8.52;;;2.80;;
78985;SDS011;68384;55.750;48.746;2023-06-19T03:08:46;5.90;;;2.60;;
78985;SDS011;68384;55.750;48.746;2023-06-19T03:09:49;4.00;;;2.63;;
78985;SDS011;68384;55.750;48.746;2023-06-19T03:10:54;4.85;;;2.97;;
78985;SDS011;68384;55.750;48.746;2023-06-19T03:11:57;5.47;;;3.03;;
78985;SDS011;68384;55.750;48.746;2023-06-19T03:13:01;5.15;;;2.50;;
78985;SDS011;68384;55.750;48.746;2023-06-19T03:14:04;4.18;;;2.40;;
78985;SDS011;68384;55.750;48.746;2023-06-19T03:15:09;4.57;;;2.30;;
78985;SDS011;68384;55.750;48.746;2023-06-19T03:16:18;4.13;;;2.30;;
78985;SDS011;68384;55.750;48.746;2023-06-19T03:17:23;4.82;;;2.60;;
78985;SDS011;68384;55.750;48.746;2023-06-19T03:18:26;3.38;;;2.05;;
78985;SDS011;68384;55.750;48.746;2023-06-19T03:19:30;4.80;;;2.42;;
78985;SDS011;68384;55.750;48.746;2023-06-19T03:20:33;4.57;;;2.80;;
78985;SDS011;68384;55.750;48.746;2023-06-19T03:21:37;5.13;;;2.63;;
78985;SDS011;68384;55.750;48.746;2023-06-19T03:22:40;4.20;;;2.50;;
78985;SDS011;68384;55.750;48.746;2023-06-19T03:23:47;5.20;;;2.35;;
78985;SDS011;68384;55.750;48.746;2023-06-19T03:24:51;3.17;;;2.13;;
78985;SDS011;68384;55.750;48.746;2023-06-19T03:25:57;4.20;;;2.45;;
78985;SDS011;68384;55.750;48.746;2023-06-19T03:27:00;4.03;;;2.80;;
78985;SDS011;68384;55.750;48.746;2023-06-19T03:28:04;6.03;;;2.15;;
78985;SDS011;68384;55.750;48.746;2023-06-19T03:29:08;3.83;;;2.22;;
78985;SDS011;68384;55.750;48.746;2023-06-19T03:30:26;7.68;;;2.58;;
78985;SDS011;68384;55.750;48.746;2023-06-19T03:31:30;4.88;;;2.45;;
78985;SDS011;68384;55.750;48.746;2023-06-19T03:32:34;5.88;;;2.40;;
78985;SDS011;68384;55.750;48.746;2023-06-19T03:33:37;4.78;;;2.83;;
78985;SDS011;68384;55.750;48.746;2023-06-19T03:34:43;4.32;;;2.67;;
78985;SDS011;68384;55.750;48.746;2023-06-19T03:35:46;5.20;;;2.67;;
78985;SDS011;68384;55.750;48.746;2023-06-19T03:37:01;4.68;;;2.30;;
78985;SDS011;68384;55.750;48.746;2023-06-19T03:38:05;4.25;;;2.88;;
78985;SDS011;68384;55.750;48.746;2023-06-19T03:39:09;4.35;;;2.90;;
78985;SDS011;68384;55.750;48.746;2023-06-19T03:40:13;4.05;;;2.55;;
78985;SDS011;68384;55.750;48.746;2023-06-19T03:41:20;4.65;;;2.22;;
78985;SDS011;68384;55.750;48.746;2023-06-19T03:42:24;6.40;;;3.03;;
78985;SDS011;68384;55.750;48.746;2023-06-19T03:43:27;4.53;;;2.20;;
78985;SDS011;68384;55.750;48.746;2023-06-19T03:44:31;3.95;;;2.42;;
78985;SDS011;68384;55.750;48.746;2023-06-19T03:45:33;4.75;;;2.95;;
78985;SDS011;68384;55.750;48.746;2023-06-19T03:46:37;5.50;;;2.55;;
78985;SDS011;68384;55.750;48.746;2023-06-19T03:47:40;5.53;;;2.45;;
78985;SDS011;68384;55.750;48.746;2023-06-19T03:48:45;4.10;;;2.65;;
78985;SDS011;68384;55.750;48.746;2023-06-19T03:49:47;5.28;;;2.60;;
78985;SDS011;68384;55.750;48.746;2023-06-19T03:50:53;5.50;;;2.28;;
78985;SDS011;68384;55.750;48.746;2023-06-19T03:51:57;4.75;;;2.78;;
78985;SDS011;68384;55.750;48.746;2023-06-19T03:53:01;5.90;;;2.83;;
78985;SDS011;68384;55.750;48.746;2023-06-19T03:54:04;5.25;;;3.20;;
78985;SDS011;68384;55.750;48.746;2023-06-19T03:55:08;6.50;;;2.92;;
78985;SDS011;68384;55.750;48.746;2023-06-19T03:56:11;5.45;;;2.70;;
78985;SDS011;68384;55.750;48.746;2023-06-19T03:57:18;4.43;;;2.85;;
78985;SDS011;68384;55.750;48.746;2023-06-19T03:58:21;8.30;;;3.55;;
78985;SDS011;68384;55.750;48.746;2023-06-19T03:59:26;5.28;;;2.70;;
78985;SDS011;68384;55.750;48.746;2023-06-19T04:00:29;4.50;;;2.85;;
78985;SDS011;68384;55.750;48.746;2023-06-19T04:01:33;5.82;;;3.00;;
78985;SDS011;68384;55.750;48.746;2023-06-19T04:02:36;7.80;;;3.47;;
78985;SDS011;68384;55.750;48.746;2023-06-19T04:03:40;5.20;;;2.90;;
78985;SDS011;68384;55.750;48.746;2023-06-19T04:04:43;8.68;;;2.78;;
78985;SDS011;68384;55.750;48.746;2023-06-19T04:05:48;6.45;;;2.97;;
78985;SDS011;68384;55.750;48.746;2023-06-19T04:06:51;5.05;;;2.67;;
78985;SDS011;68384;55.750;48.746;2023-06-19T04:07:55;8.68;;;3.33;;
78985;SDS011;68384;55.750;48.746;2023-06-19T04:08:58;5.03;;;2.50;;
78985;SDS011;68384;55.750;48.746;2023-06-19T04:10:02;5.40;;;3.22;;
78985;SDS011;68384;55.750;48.746;2023-06-19T04:11:06;6.03;;;2.45;;
78985;SDS011;68384;55.750;48.746;2023-06-19T04:12:10;4.70;;;2.67;;
78985;SDS011;68384;55.750;48.746;2023-06-19T04:13:14;5.43;;;2.80;;
78985;SDS011;68384;55.750;48.746;2023-06-19T04:14:19;4.55;;;2.70;;
78985;SDS011;68384;55.750;48.746;2023-06-19T04:15:24;5.90;;;2.72;;
78985;SDS011;68384;55.750;48.746;2023-06-19T04:16:27;5.78;;;2.40;;
78985;SDS011;68384;55.750;48.746;2023-06-19T04:17:31;6.25;;;3.33;;
78985;SDS011;68384;55.750;48.746;2023-06-19T04:18:34;4.43;;;2.85;;
78985;SDS011;68384;55.750;48.746;2023-06-19T04:19:38;6.05;;;2.90;;
78985;SDS011;68384;55.750;48.746;2023-06-19T04:20:41;3.65;;;2.35;;
78985;SDS011;68384;55.750;48.746;2023-06-19T04:21:46;4.03;;;2.42;;
78985;SDS011;68384;55.750;48.746;2023-06-19T04:22:49;5.47;;;2.50;;
78985;SDS011;68384;55.750;48.746;2023-06-19T04:23:53;5.30;;;2.72;;
78985;SDS011;68384;55.750;48.746;2023-06-19T04:24:56;5.97;;;2.60;;
78985;SDS011;68384;55.750;48.746;2023-06-19T04:26:00;3.88;;;2.92;;
78985;SDS011;68384;55.750;48.746;2023-06-19T04:27:04;5.30;;;2.28;;
78985;SDS011;68384;55.750;48.746;2023-06-19T04:28:10;4.57;;;2.85;;
78985;SDS011;68384;55.750;48.746;2023-06-19T04:29:14;3.85;;;2.83;;
78985;SDS011;68384;55.750;48.746;2023-06-19T04:30:18;4.70;;;2.63;;
78985;SDS011;68384;55.750;48.746;2023-06-19T04:31:23;3.22;;;2.45;;
78985;SDS011;68384;55.750;48.746;2023-06-19T04:32:28;4.85;;;2.20;;
78985;SDS011;68384;55.750;48.746;2023-06-19T04:33:32;3.70;;;2.38;;
78985;SDS011;68384;55.750;48.746;2023-06-19T04:34:36;5.97;;;2.58;;
78985;SDS011;68384;55.750;48.746;2023-06-19T04:35:40;5.07;;;2.35;;
78985;SDS011;68384;55.750;48.746;2023-06-19T04:36:44;3.85;;;2.28;;
78985;SDS011;68384;55.750;48.746;2023-06-19T04:37:47;4.50;;;3.05;;
78985;SDS011;68384;55.750;48.746;2023-06-19T04:38:51;4.65;;;2.92;;
78985;SDS011;68384;55.750;48.746;2023-06-19T04:39:54;5.32;;;2.55;;
78985;SDS011;68384;55.750;48.746;2023-06-19T04:40:59;4.40;;;2.72;;
78985;SDS011;68384;55.750;48.746;2023-06-19T04:42:02;4.50;;;2.30;;
78985;SDS011;68384;55.750;48.746;2023-06-19T04:43:06;4.63;;;2.53;;
78985;SDS011;68384;55.750;48.746;2023-06-19T04:44:09;5.05;;;3.33;;
78985;SDS011;68384;55.750;48.746;2023-06-19T04:45:15;4.35;;;2.53;;
78985;SDS011;68384;55.750;48.746;2023-06-19T04:46:18;5.53;;;3.13;;
78985;SDS011;68384;55.750;48.746;2023-06-19T04:47:22;5.22;;;2.63;;
78985;SDS011;68384;55.750;48.746;2023-06-19T04:48:37;3.85;;;2.55;;
78985;SDS011;68384;55.750;48.746;2023-06-19T04:49:41;4.13;;;2.40;;
78985;SDS011;68384;55.750;48.746;2023-06-19T04:50:44;3.72;;;2.60;;
78985;SDS011;68384;55.750;48.746;2023-06-19T04:51:48;3.85;;;2.55;;
78985;SDS011;68384;55.750;48.746;2023-06-19T04:52:51;5.40;;;2.38;;
78985;SDS011;68384;55.750;48.746;2023-06-19T04:53:55;4.65;;;2.80;;
78985;SDS011;68384;55.750;48.746;2023-06-19T04:54:59;4.38;;;2.67;;
78985;SDS011;68384;55.750;48.746;2023-06-19T04:56:03;4.10;;;2.35;;
78985;SDS011;68384;55.750;48.746;2023-06-19T04:57:06;4.07;;;2.60;;
78985;SDS011;68384;55.750;48.746;2023-06-19T04:58:10;4.40;;;2.50;;
78985;SDS011;68384;55.750;48.746;2023-06-19T04:59:13;6.45;;;2.85;;
78985;SDS011;68384;55.750;48.746;2023-06-19T05:00:21;4.05;;;2.55;;
78985;SDS011;68384;55.750;48.746;2023-06-19T05:01:26;3.92;;;2.50;;
78985;SDS011;68384;55.750;48.746;2023-06-19T05:02:30;4.65;;;2.60;;
78985;SDS011;68384;55.750;48.746;2023-06-19T05:03:33;4.45;;;2.35;;
78985;SDS011;68384;55.750;48.746;2023-06-19T05:04:37;11.98;;;2.83;;
78985;SDS011;68384;55.750;48.746;2023-06-19T05:05:40;4.47;;;2.35;;
78985;SDS011;68384;55.750;48.746;2023-06-19T05:06:44;3.33;;;2.42;;
78985;SDS011;68384;55.750;48.746;2023-06-19T05:07:47;5.57;;;2.85;;
78985;SDS011;68384;55.750;48.746;2023-06-19T05:08:51;4.95;;;2.70;;
78985;SDS011;68384;55.750;48.746;2023-06-19T05:09:54;3.63;;;2.40;;
78985;SDS011;68384;55.750;48.746;2023-06-19T05:10:58;4.50;;;2.72;;
78985;SDS011;68384;55.750;48.746;2023-06-19T05:12:01;6.10;;;2.42;;
78985;SDS011;68384;55.750;48.746;2023-06-19T05:13:05;4.30;;;2.10;;
78985;SDS011;68384;55.750;48.746;2023-06-19T05:14:08;2.95;;;2.00;;
78985;SDS011;68384;55.750;48.746;2023-06-19T05:15:12;7.93;;;2.75;;
78985;SDS011;68384;55.750;48.746;2023-06-19T05:16:16;4.43;;;2.10;;
78985;SDS011;68384;55.750;48.746;2023-06-19T05:17:21;4.97;;;2.40;;
78985;SDS011;68384;55.750;48.746;2023-06-19T05:18:25;5.75;;;2.20;;
78985;SDS011;68384;55.750;48.746;2023-06-19T05:20:50;7.28;;;2.70;;
78985;SDS011;68384;55.750;48.746;2023-06-19T05:21:55;4.53;;;2.53;;
78985;SDS011;68384;55.750;48.746;2023-06-19T05:24:40;3.63;;;2.28;;
78985;SDS011;68384;55.750;48.746;2023-06-19T05:25:43;3.45;;;1.98;;
78985;SDS011;68384;55.750;48.746;2023-06-19T05:27:04;3.15;;;2.20;;
78985;SDS011;68384;55.750;48.746;2023-06-19T05:28:09;2.97;;;1.98;;
78985;SDS011;68384;55.750;48.746;2023-06-19T05:29:12;3.47;;;2.00;;
78985;SDS011;68384;55.750;48.746;2023-06-19T05:30:16;6.13;;;2.20;;
78985;SDS011;68384;55.750;48.746;2023-06-19T05:31:21;3.13;;;2.20;;
78985;SDS011;68384;55.750;48.746;2023-06-19T05:32:25;4.25;;;2.08;;
78985;SDS011;68384;55.750;48.746;2023-06-19T05:33:27;4.68;;;1.92;;
78985;SDS011;68384;55.750;48.746;2023-06-19T05:34:31;5.40;;;1.80;;
78985;SDS011;68384;55.750;48.746;2023-06-19T05:35:34;5.10;;;1.83;;
78985;SDS011;68384;55.750;48.746;2023-06-19T05:36:38;2.50;;;1.73;;
78985;SDS011;68384;55.750;48.746;2023-06-19T05:37:41;4.70;;;2.10;;
78985;SDS011;68384;55.750;48.746;2023-06-19T05:38:46;4.85;;;1.90;;
78985;SDS011;68384;55.750;48.746;2023-06-19T05:39:49;2.80;;;1.88;;
78985;SDS011;68384;55.750;48.746;2023-06-19T05:40:53;3.33;;;2.03;;
78985;SDS011;68384;55.750;48.746;2023-06-19T05:41:57;4.93;;;2.50;;
78985;SDS011;68384;55.750;48.746;2023-06-19T05:43:00;3.08;;;2.00;;
78985;SDS011;68384;55.750;48.746;2023-06-19T05:44:04;4.50;;;1.95;;
78985;SDS011;68384;55.750;48.746;2023-06-19T05:45:07;3.20;;;1.77;;
78985;SDS011;68384;55.750;48.746;2023-06-19T05:46:11;2.53;;;1.73;;
78985;SDS011;68384;55.750;48.746;2023-06-19T05:47:15;2.80;;;1.85;;
78985;SDS011;68384;55.750;48.746;2023-06-19T05:48:22;2.53;;;1.77;;
78985;SDS011;68384;55.750;48.746;2023-06-19T05:49:25;3.05;;;1.80;;
78985;SDS011;68384;55.750;48.746;2023-06-19T05:50:28;2.70;;;1.80;;
78985;SDS011;68384;55.750;48.746;2023-06-19T05:51:32;3.42;;;1.73;;
78985;SDS011;68384;55.750;48.746;2023-06-19T05:52:36;2.90;;;1.60;;
78985;SDS011;68384;55.750;48.746;2023-06-19T05:53:43;2.38;;;1.73;;
78985;SDS011;68384;55.750;48.746;2023-06-19T05:54:47;3.72;;;1.60;;
78985;SDS011;68384;55.750;48.746;2023-06-19T05:55:50;2.65;;;1.63;;
78985;SDS011;68384;55.750;48.746;2023-06-19T05:56:54;3.50;;;1.50;;
78985;SDS011;68384;55.750;48.746;2023-06-19T05:57:58;6.68;;;1.98;;
78985;SDS011;68384;55.750;48.746;2023-06-19T05:59:02;2.88;;;1.50;;
78985;SDS011;68384;55.750;48.746;2023-06-19T06:00:06;2.33;;;1.58;;
78985;SDS011;68384;55.750;48.746;2023-06-19T06:01:14;4.10;;;1.60;;
78985;SDS011;68384;55.750;48.746;2023-06-19T06:02:19;2.20;;;1.55;;
78985;SDS011;68384;55.750;48.746;2023-06-19T06:03:23;2.53;;;1.30;;
78985;SDS011;68384;55.750;48.746;2023-06-19T06:05:30;2.45;;;1.60;;
78985;SDS011;68384;55.750;48.746;2023-06-19T06:06:33;1.85;;;1.50;;
78985;SDS011;68384;55.750;48.746;2023-06-19T06:07:37;3.63;;;1.70;;
78985;SDS011;68384;55.750;48.746;2023-06-19T06:08:43;4.15;;;1.55;;
78985;SDS011;68384;55.750;48.746;2023-06-19T06:09:46;2.55;;;1.40;;
78985;SDS011;68384;55.750;48.746;2023-06-19T06:10:49;3.53;;;1.80;;
78985;SDS011;68384;55.750;48.746;2023-06-19T06:11:53;2.20;;;1.60;;
78985;SDS011;68384;55.750;48.746;2023-06-19T06:12:56;2.90;;;1.90;;
78985;SDS011;68384;55.750;48.746;2023-06-19T06:14:00;2.65;;;1.50;;
78985;SDS011;68384;55.750;48.746;2023-06-19T06:15:04;2.28;;;1.50;;
78985;SDS011;68384;55.750;48.746;2023-06-19T06:16:09;2.67;;;1.60;;
78985;SDS011;68384;55.750;48.746;2023-06-19T06:17:12;2.58;;;1.73;;
78985;SDS011;68384;55.750;48.746;2023-06-19T06:18:17;2.90;;;1.75;;
78985;SDS011;68384;55.750;48.746;2023-06-19T06:19:20;4.57;;;1.75;;
78985;SDS011;68384;55.750;48.746;2023-06-19T06:20:24;2.78;;;1.50;;
78985;SDS011;68384;55.750;48.746;2023-06-19T06:21:27;2.47;;;1.48;;
78985;SDS011;68384;55.750;48.746;2023-06-19T06:22:31;2.40;;;1.50;;
78985;SDS011;68384;55.750;48.746;2023-06-19T06:23:34;2.55;;;1.63;;
78985;SDS011;68384;55.750;48.746;2023-06-19T06:24:38;2.38;;;1.40;;
78985;SDS011;68384;55.750;48.746;2023-06-19T06:25:42;3.45;;;1.70;;
78985;SDS011;68384;55.750;48.746;2023-06-19T06:26:47;3.38;;;1.30;;
78985;SDS011;68384;55.750;48.746;2023-06-19T06:27:51;2.90;;;1.73;;
78985;SDS011;68384;55.750;48.746;2023-06-19T06:28:54;4.13;;;1.60;;